Date,TemperatureHighF,TemperatureAvgF,TemperatureLowF,DewpointHighF,DewpointAvgF,DewpointLowF,HumidityHigh,HumidityAvg,HumidityLow,PressureMaxIn,PressureMinIn,WindSpeedMaxMPH,WindSpeedAvgMPH,GustSpeedMaxMPH,PrecipitationSumIn
2012-1-1,58.6,47.1,35.9,43.3,34.3,28.9,92,64,36,30.26,30.01,20,3,20,0.00
2012-1-2,56.9,44.9,36.6,45.4,38.2,30.7,91,78,42,30.25,29.89,21,2,21,0.17
2012-1-3,54.6,49.7,40.6,44.8,41.0,34.2,96,73,49,30.28,30.13,17,1,17,0.00
2012-1-4,60.2,53.8,47.0,47.8,39.6,31.3,93,63,35,30.19,30.03,22,2,22,0.10
2012-1-5,47.0,40.2,32.8,41.5,36.7,31.2,95,88,67,30.40,30.18,19,1,19,0.15
2012-1-6,39.9,35.6,32.8,36.0,33.0,31.0,95,90,78,30.37,30.26,10,0,10,0.02
2012-1-7,46.2,41.0,37.0,40.0,37.7,34.3,95,88,73,30.45,30.31,6,0,6,0.00
2012-1-8,54.6,42.5,33.4,46.3,38.4,32.3,98,86,68,30.38,30.21,5,0,5,0.00
2012-1-9,50.6,46.0,39.3,45.1,40.7,36.7,97,82,64,30.27,30.18,9,1,9,0.24
2012-1-10,39.8,35.0,27.8,37.7,33.6,26.8,98,94,82,30.50,30.27,8,0,8,0.03
2012-1-11,38.8,30.6,26.5,33.5,28.6,25.3,97,93,78,30.50,30.36,5,0,5,0.01
2012-1-12,44.4,33.3,25.9,33.7,28.9,24.3,96,85,60,30.38,30.27,6,0,6,0.00
2012-1-13,40.0,33.5,26.9,34.3,29.8,24.8,93,86,71,30.31,30.02,4,0,4,0.00
2012-1-14,43.9,35.8,31.3,38.5,31.8,27.7,96,86,59,30.03,29.87,20,2,20,0.12
2012-1-15,35.5,31.4,28.2,31.6,29.1,27.1,96,91,80,30.10,29.95,13,0,14,0.04
2012-1-16,34.7,30.7,24.8,31.4,28.1,22.5,96,90,82,30.12,29.97,5,0,5,0.05
2012-1-17,35.6,32.7,30.3,33.8,31.1,29.0,100,94,86,29.97,29.82,19,1,19,0.13
2012-1-18,31.8,30.3,28.9,30.8,29.4,28.1,97,97,95,29.96,29.58,1,0,1,0.00
2012-1-19,32.1,30.9,29.3,31.6,30.1,27.7,98,97,91,29.75,29.52,0,0,0,0.01
2012-1-20,50.4,42.8,32.1,44.4,40.4,31.6,99,92,72,29.75,29.05,20,1,20,0.81
2012-1-21,49.1,39.3,33.6,45.7,37.3,32.1,96,93,85,29.91,29.05,23,2,23,0.43
2012-1-22,44.8,39.8,33.3,39.9,35.7,31.7,95,86,67,29.89,29.43,12,2,24,0.26
2012-1-23,47.6,38.2,34.0,36.4,32.5,23.5,93,81,53,30.04,29.83,11,1,11,0.00
2012-1-24,52.6,46.2,38.2,47.9,37.5,17.2,92,74,34,30.01,29.66,35,7,35,0.37
2012-1-25,48.9,44.4,40.6,42.0,39.2,36.6,93,82,73,30.30,30.00,24,3,24,0.09
2012-1-26,49.2,39.2,30.4,44.0,33.8,28.3,94,81,64,30.58,29.97,32,3,32,0.13
2012-1-27,43.3,33.1,28.7,31.8,28.1,25.9,93,83,59,30.62,30.47,6,0,6,0.01
2012-1-28,56.2,42.2,30.3,39.1,30.2,20.0,90,65,28,30.48,30.11,12,1,12,0.00
2012-1-29,58.9,50.0,43.8,46.9,42.5,30.5,97,79,35,30.11,29.79,24,2,24,0.84
2012-1-30,47.7,43.8,40.7,43.5,40.4,36.8,100,88,73,30.08,29.86,13,1,13,0.24
2012-1-31,49.7,43.7,38.4,40.6,38.4,36.1,93,82,66,30.08,29.86,10,0,10,0.01
2012-2-1,46.9,41.6,35.0,41.5,38.2,32.9,96,88,73,30.45,29.84,17,1,17,0.36
2012-2-2,50.8,40.5,34.3,38.9,32.9,29.7,92,76,50,30.45,30.23,11,2,11,0.00
2012-2-3,55.4,43.2,29.5,38.4,29.3,15.1,91,62,26,30.23,30.06,22,3,22,0.00
2012-2-4,61.2,49.8,40.2,35.3,23.7,16.9,60,37,21,30.15,30.08,25,4,25,0.00
2012-2-5,58.1,45.2,34.3,36.7,29.2,21.9,84,55,36,30.21,30.08,8,1,8,0.00
2012-2-6,61.3,50.3,35.2,28.7,18.5,8.4,77,32,16,30.09,29.83,35,10,35,0.00
2012-2-7,62.0,52.1,41.3,37.4,22.8,14.9,75,35,17,29.99,29.80,25,8,30,0.01
2012-2-8,53.9,48.1,41.9,42.3,40.0,37.1,87,74,57,30.25,29.99,25,4,25,0.09
2012-2-9,49.6,47.6,45.8,43.4,41.5,40.5,83,80,75,30.26,30.19,7,1,7,0.01
2012-2-10,50.7,45.9,44.4,46.6,44.3,43.3,96,94,85,30.03,29.96,3,1,9,0.09
2012-2-11,47.9,43.3,40.0,43.3,40.6,38.1,99,91,74,30.16,30.03,8,0,12,0.03
2012-2-12,47.6,42.0,38.0,41.4,39.0,36.5,97,89,77,30.12,29.87,7,1,9,0.17
2012-2-13,42.7,39.7,37.6,40.6,38.5,36.6,97,95,91,30.06,29.91,5,0,6,0.12
2012-2-14,43.1,37.2,33.3,37.5,35.5,32.1,97,94,71,30.20,29.90,16,1,16,0.14
2012-2-15,43.7,35.7,31.8,37.2,33.4,30.5,97,92,74,30.40,30.20,6,0,6,0.01
2012-2-16,46.9,41.2,34.9,43.1,38.5,32.9,100,90,81,30.29,30.19,14,1,14,0.08
2012-2-17,55.3,43.3,37.3,45.6,40.4,36.3,98,90,65,30.25,29.85,26,1,26,0.43
2012-2-18,40.7,39.0,36.7,38.1,36.1,33.6,94,90,79,30.11,29.97,18,3,18,0.14
2012-2-19,42.4,38.4,35.4,35.9,32.9,29.8,92,81,68,30.13,29.89,14,1,15,0.00
2012-2-20,44.5,40.9,35.5,42.8,38.1,29.9,96,90,76,30.04,29.84,6,0,6,0.12
2012-2-21,49.3,46.5,44.3,47.1,45.1,42.5,97,95,91,30.16,30.03,14,1,14,0.46
2012-2-22,48.1,43.9,39.7,46.1,40.1,33.4,97,86,74,30.34,29.99,29,6,29,0.35
2012-2-23,44.5,40.1,36.7,36.8,34.8,33.0,93,82,67,30.41,30.27,18,3,18,0.01
2012-2-24,50.4,44.2,37.5,42.0,37.4,34.2,93,77,66,30.28,29.61,20,2,20,0.52
2012-2-25,40.8,37.0,34.0,35.9,31.3,28.0,93,80,63,30.25,29.61,25,6,25,0.15
2012-2-26,41.4,35.0,29.6,32.7,30.8,25.0,97,86,57,30.25,30.09,17,1,17,0.02
2012-2-27,42.2,32.2,25.7,35.4,29.4,24.5,97,90,67,30.18,29.96,13,1,13,0.09
2012-2-28,42.1,37.5,30.9,35.2,26.7,18.8,93,66,46,29.96,29.43,34,5,34,0.16
2012-2-29,38.0,35.0,32.8,35.5,32.7,29.5,97,91,79,29.81,29.52,13,1,13,0.28
2012-3-1,41.5,35.9,31.6,37.3,33.8,30.6,97,92,81,30.36,29.80,11,0,11,0.06
2012-3-2,44.5,39.8,35.9,40.0,36.7,33.1,95,89,75,30.42,30.35,10,1,10,0.05
2012-3-3,51.8,46.5,42.2,45.0,42.2,39.6,94,85,71,30.41,30.34,18,2,18,0.00
2012-3-4,53.4,44.9,36.9,42.5,39.6,34.9,93,82,61,30.36,29.98,11,1,11,0.00
2012-3-5,46.9,40.4,34.4,41.3,33.2,22.2,94,76,47,29.98,29.72,21,3,21,0.40
2012-3-6,41.2,34.5,29.5,28.7,26.1,19.6,93,73,43,30.34,29.89,12,1,12,0.00
2012-3-7,47.1,35.6,26.0,30.0,26.9,24.2,94,73,42,30.46,30.33,10,1,10,0.00
2012-3-8,61.9,43.1,29.2,42.8,34.8,27.6,96,75,45,30.36,30.17,6,1,6,0.00
2012-3-9,58.0,43.5,31.7,42.5,37.5,30.1,100,81,43,30.23,29.95,12,1,12,0.00
2012-3-10,47.4,45.2,41.1,44.2,40.5,36.1,96,84,69,29.96,29.61,14,1,14,0.25
2012-3-11,42.5,38.2,34.7,39.6,35.5,31.0,96,90,77,29.78,29.58,15,1,15,0.41
2012-3-12,44.5,40.3,33.1,38.8,33.1,26.4,90,76,54,29.68,29.30,41,11,41,0.55
2012-3-13,39.8,34.8,32.5,33.0,30.1,26.8,92,83,66,29.87,29.36,23,3,23,0.26
2012-3-14,45.5,40.4,33.7,38.2,32.5,23.4,82,73,59,29.86,29.67,34,10,34,0.20
2012-3-15,52.0,46.6,41.6,43.6,39.9,36.6,87,77,59,29.69,29.49,31,9,31,0.85
2012-3-16,48.3,42.9,37.3,38.3,34.0,30.0,89,71,53,29.70,29.32,19,4,19,0.16
2012-3-17,47.0,38.4,32.8,36.8,33.4,27.3,92,83,48,29.66,29.30,16,2,16,0.44
2012-3-18,39.2,35.4,33.4,34.2,32.0,30.1,92,87,76,29.85,29.59,17,1,17,0.10
2012-3-19,44.1,37.5,29.3,35.0,31.2,27.4,94,79,62,29.89,29.61,33,2,33,0.02
2012-3-20,43.9,39.3,34.4,38.6,35.5,33.1,96,87,70,29.99,29.56,32,6,32,0.45
2012-3-21,43.5,37.4,33.0,36.0,33.7,31.1,100,88,66,30.00,29.79,11,1,11,0.13
2012-3-22,47.4,38.1,32.0,38.6,33.6,31.2,97,85,60,30.04,29.79,11,1,11,0.35
2012-3-23,51.8,39.9,29.7,35.7,31.9,28.4,96,76,46,30.02,29.94,9,1,9,0.00
2012-3-24,60.9,43.9,32.5,38.0,32.9,29.2,92,68,34,30.00,29.86,11,2,11,0.00
2012-3-25,53.9,45.5,35.8,44.7,36.6,30.6,93,72,48,29.88,29.68,10,2,10,0.01
2012-3-26,54.2,45.5,40.2,43.5,37.3,29.3,96,76,40,29.82,29.70,18,1,18,0.08
2012-3-27,57.1,51.2,45.6,44.2,40.3,33.1,78,66,54,29.70,29.47,17,3,17,0.05
2012-3-28,51.9,46.7,43.3,43.7,38.6,35.1,82,73,63,29.80,29.53,23,3,23,0.09
2012-3-29,48.6,45.4,43.8,45.5,40.1,36.2,96,82,71,29.67,29.40,34,9,34,1.51
2012-3-30,48.4,44.1,39.1,44.5,40.8,35.9,97,88,65,29.76,29.44,30,2,30,0.24
2012-3-31,51.6,42.5,36.9,42.8,36.3,30.9,97,81,47,29.67,29.35,19,3,19,0.39
2012-4-1,45.1,41.5,38.5,39.2,34.4,29.8,91,76,63,30.21,29.49,18,3,18,0.83
2012-4-2,61.2,50.7,39.1,36.7,30.2,23.3,90,50,24,30.23,29.85,29,6,29,0.00
2012-4-3,57.8,47.9,38.0,42.8,34.2,26.3,94,65,31,29.98,29.71,24,4,25,0.18
2012-4-4,48.0,40.1,35.6,36.9,33.8,28.1,96,80,48,30.10,29.93,12,1,12,0.78
2012-4-5,47.0,38.5,35.9,39.0,36.5,34.3,96,93,70,30.17,30.09,11,1,11,0.31
2012-4-6,46.9,38.5,34.0,39.9,34.7,31.4,96,87,60,30.30,30.16,14,1,14,0.22
2012-4-7,61.3,45.7,32.1,36.6,31.1,26.9,93,62,31,30.29,30.11,14,2,14,0.00
2012-4-8,69.5,57.6,46.5,35.2,30.7,25.2,59,37,23,30.13,29.94,13,1,13,0.00
2012-4-9,67.4,55.9,44.2,42.7,37.0,30.4,75,51,33,29.97,29.81,11,1,11,0.00
2012-4-10,64.6,53.0,42.8,48.7,43.2,39.2,88,71,42,29.81,29.68,14,1,17,0.00
2012-4-11,51.6,47.9,45.5,46.6,44.6,40.5,95,88,74,29.78,29.65,10,1,11,0.54
2012-4-12,56.1,46.7,39.0,44.6,41.2,35.4,95,82,49,29.80,29.66,28,2,28,0.04
2012-4-13,56.3,45.2,34.6,43.7,38.9,33.0,96,80,57,29.91,29.78,13,1,13,0.00
2012-4-14,58.9,46.8,35.3,44.9,39.2,33.4,94,76,50,30.15,29.91,18,2,18,0.00
2012-4-15,60.7,49.8,37.4,41.3,37.2,34.3,92,65,39,30.19,29.99,11,1,11,0.00
2012-4-16,53.7,48.7,41.5,48.6,44.4,36.1,95,85,68,30.21,29.86,19,2,19,0.31
2012-4-17,50.6,43.7,36.3,42.7,37.2,31.8,94,79,54,30.22,29.97,10,1,10,0.04
2012-4-18,55.2,47.0,43.0,44.1,41.5,36.3,95,82,52,30.08,29.93,18,2,18,0.17
2012-4-19,56.0,48.0,38.9,50.7,44.7,37.0,97,89,62,30.08,29.96,13,1,13,0.65
2012-4-20,51.4,47.5,44.7,50.5,45.7,43.2,100,94,85,30.24,30.04,11,0,11,0.34
2012-4-21,67.5,53.4,39.9,52.6,46.9,39.1,100,80,57,30.17,29.96,10,1,10,0.00
2012-4-22,75.2,60.1,46.0,55.4,50.5,44.9,97,74,46,29.98,29.82,10,1,10,0.00
2012-4-23,72.8,60.3,49.5,57.2,52.1,47.8,95,76,54,29.88,29.75,4,0,4,0.00
2012-4-24,58.7,54.4,50.9,50.9,49.7,47.4,92,84,69,29.91,29.79,0,0,0,0.00
2012-4-25,64.6,57.5,48.8,54.7,50.8,47.4,96,79,61,29.80,29.58,0,0,0,0.23
2012-4-26,49.7,45.7,40.7,48.2,43.5,38.6,100,92,75,30.06,29.57,0,0,0,0.54
2012-4-27,54.5,45.8,39.5,44.3,40.1,34.4,95,82,50,30.29,30.06,6,0,6,0.07
2012-4-28,60.4,52.8,44.1,47.7,42.7,39.4,87,69,50,30.28,30.17,12,2,12,0.00
2012-4-29,60.4,53.3,49.2,50.8,47.7,45.7,95,82,62,30.18,29.77,9,1,9,0.14
2012-4-30,53.0,47.6,41.9,48.7,45.0,39.6,97,91,77,29.96,29.67,0,0,0,0.52
2012-5-1,48.1,42.8,39.3,43.0,39.7,37.9,95,89,70,30.00,29.94,0,0,0,0.31
2012-5-2,53.7,45.4,37.9,42.0,39.0,35.8,96,80,54,29.99,29.74,0,0,0,0.01
2012-5-3,51.8,45.8,42.5,48.3,43.8,40.7,97,93,78,29.98,29.56,0,0,0,0.76
2012-5-4,51.1,44.7,40.8,43.5,40.8,36.3,96,87,67,30.39,29.98,0,0,0,0.12
2012-5-5,53.2,45.6,40.6,43.1,38.3,35.1,90,76,51,30.51,30.39,17,1,17,0.05
2012-5-6,63.4,52.0,40.2,43.1,40.6,36.9,89,67,44,30.49,30.34,13,2,14,0.00
2012-5-7,75.6,59.2,42.8,48.8,43.7,38.8,95,61,30,30.35,30.07,12,2,12,0.00
2012-5-8,69.1,57.4,46.1,49.9,43.6,35.4,85,62,37,30.13,30.04,16,2,16,0.00
2012-5-9,56.5,45.9,35.9,39.1,33.9,27.9,91,65,36,30.34,30.13,0,0,0,0.00
2012-5-10,55.6,45.8,33.8,35.3,31.5,27.8,89,60,37,30.42,30.29,0,0,0,0.00
2012-5-11,65.5,50.5,35.0,37.0,30.3,26.3,79,50,26,30.32,30.16,16,3,16,0.00
2012-5-12,75.5,58.3,39.3,47.9,41.2,35.4,90,58,28,30.20,30.08,6,0,7,0.00
2012-5-13,77.4,62.6,45.9,50.3,45.4,40.1,82,57,32,30.15,30.00,0,0,0,0.00
2012-5-14,79.5,64.6,48.9,54.4,49.1,44.3,89,61,30,30.04,29.94,0,0,0,0.00
2012-5-15,73.9,59.8,45.0,54.1,48.0,43.1,94,68,38,30.07,29.99,0,0,0,0.00
2012-5-16,66.5,55.4,44.7,49.5,43.6,35.4,91,67,40,30.08,30.00,0,0,0,0.00
2012-5-17,63.2,49.8,36.9,44.4,37.9,33.2,92,66,42,30.07,29.96,12,1,12,0.00
2012-5-18,59.9,48.4,36.6,41.5,37.8,34.1,93,69,41,30.17,30.07,0,0,0,0.00
2012-5-19,65.6,53.2,36.9,45.2,39.9,34.8,93,64,39,30.11,30.00,0,0,0,0.00
2012-5-20,59.8,55.2,52.4,57.0,49.9,44.3,94,83,67,30.02,29.97,0,0,0,0.22
2012-5-21,55.3,54.4,53.2,54.4,53.5,52.3,97,97,97,29.90,29.81,0,0,0,0.02
2012-5-22,46.9,46.9,46.8,44.6,44.4,44.3,92,91,91,29.95,29.94,0,0,0,0.01
2012-5-28,47.9,47.4,46.7,43.3,42.8,42.3,86,84,81,30.13,30.11,0,0,0,0.00
2012-5-29,58.8,51.6,43.6,46.5,43.1,40.0,94,74,55,30.15,30.11,0,0,0,0.00
2012-5-30,67.9,56.2,46.4,51.7,47.6,43.6,92,74,51,30.23,30.11,0,0,0,0.00
2012-5-31,66.5,59.3,53.1,59.9,55.3,50.5,97,87,74,30.13,30.02,0,0,0,0.27
2012-6-6,60.0,51.8,42.2,44.6,37.7,32.2,84,61,37,30.21,29.98,8,2,13,0.00
2012-6-7,62.7,52.7,47.7,50.5,45.7,39.1,92,78,55,29.97,29.78,19,4,29,0.40
2012-6-8,55.6,49.0,45.2,44.2,42.1,38.8,90,78,55,30.04,29.93,18,2,18,0.17
2012-6-9,58.6,51.2,45.5,45.6,42.8,39.5,91,74,51,30.25,30.04,17,2,18,0.05
2012-6-10,65.8,55.3,47.7,45.3,42.0,38.5,81,62,42,30.26,30.19,12,2,12,0.00
2012-6-11,75.1,61.5,48.0,51.4,44.9,40.5,82,58,32,30.19,30.03,10,2,12,0.00
2012-6-12,63.4,57.0,53.6,56.5,51.1,47.5,89,81,68,30.05,29.98,9,1,9,0.09
2012-6-13,58.2,53.2,49.4,50.7,46.1,39.8,89,77,60,30.18,30.05,10,2,15,0.00
2012-6-14,61.5,54.5,47.3,48.0,43.0,40.8,86,66,51,30.14,30.09,15,2,15,0.00
2012-6-15,73.9,60.7,44.9,52.4,44.8,38.5,85,59,32,30.16,30.11,13,2,13,0.00
2012-6-16,76.8,65.9,57.5,62.1,55.9,50.0,91,71,51,30.14,29.92,14,3,14,0.03
2012-6-17,63.2,58.4,51.4,58.8,53.5,46.1,92,84,70,29.95,29.89,17,2,17,0.05
2012-6-18,59.9,53.5,49.5,49.1,45.7,41.3,90,75,55,30.05,29.85,19,2,19,0.11
2012-6-19,62.3,54.1,49.1,53.4,46.9,43.0,88,77,59,30.15,30.03,10,1,10,0.06
2012-6-20,74.4,61.5,46.7,51.7,46.3,41.8,87,61,34,30.15,29.88,15,3,15,0.00
2012-6-21,76.0,63.3,51.7,54.6,51.1,47.3,86,66,46,29.92,29.73,14,2,14,0.00
2012-6-22,58.4,54.4,52.0,52.7,50.4,47.1,91,86,76,29.79,29.69,8,1,8,0.26
2012-6-23,59.8,53.0,47.4,51.3,48.4,42.8,92,85,56,29.93,29.69,16,2,16,0.38
2012-6-24,66.9,54.3,46.1,52.5,46.3,40.4,92,76,40,30.05,29.91,14,2,14,0.04
2012-6-25,64.5,54.9,47.3,52.8,47.5,43.0,90,77,52,30.01,29.92,13,2,13,0.04
2012-6-26,61.8,54.7,50.5,51.7,47.4,40.8,91,77,49,30.07,29.92,16,2,16,0.07
2012-6-27,72.7,59.6,45.7,49.7,45.2,41.1,91,62,38,30.06,29.88,13,3,13,0.01
2012-6-28,73.3,62.4,51.1,56.0,50.1,44.8,84,65,41,30.00,29.87,13,2,13,0.00
2012-6-29,71.8,63.9,58.9,58.1,54.2,49.9,88,71,59,30.04,29.98,16,2,16,0.03
2012-6-30,69.1,62.8,59.2,62.0,58.5,55.6,92,86,72,29.99,29.89,14,1,14,0.10
2012-7-1,65.5,58.4,54.1,55.7,48.8,45.6,88,72,51,30.05,29.93,11,2,11,0.00
2012-7-2,66.6,57.2,49.4,54.0,49.2,45.4,90,75,56,30.02,29.87,11,2,11,0.07
2012-7-3,60.7,55.1,51.3,50.6,47.2,42.5,91,75,55,30.14,29.83,19,3,19,0.09
2012-7-4,68.5,57.7,47.0,51.8,46.2,42.7,88,67,43,30.12,29.93,14,2,14,0.00
2012-7-5,75.3,62.1,47.0,52.1,46.9,42.8,86,61,35,30.01,29.94,13,2,13,0.00
2012-7-6,78.3,64.9,51.6,54.1,49.5,45.9,86,60,35,30.09,29.99,11,2,11,0.00
2012-7-7,80.7,66.4,51.6,57.9,53.0,47.9,88,65,41,30.11,29.98,13,2,13,0.00
2012-7-8,83.0,70.7,55.9,60.6,56.0,51.5,88,62,38,30.04,29.92,11,2,11,0.00
2012-7-9,79.2,65.5,56.3,60.1,56.1,51.8,88,73,50,30.08,29.99,11,2,11,0.00
2012-7-10,74.2,60.9,51.7,56.5,52.4,48.7,92,75,46,30.17,30.03,12,2,12,0.00
2012-7-11,81.6,68.3,54.5,58.3,54.0,49.6,86,63,35,30.05,29.93,13,2,13,0.00
2012-7-12,79.0,64.9,54.4,59.8,55.4,50.6,91,73,46,29.97,29.91,12,2,12,0.00
2012-7-13,74.6,61.1,53.5,59.1,54.3,50.6,92,79,55,30.02,29.92,10,1,10,0.00
2012-7-14,77.2,65.4,56.3,62.0,57.1,52.4,88,76,54,29.96,29.89,10,1,10,0.00
2012-7-15,68.3,61.4,57.3,60.6,52.2,45.3,88,73,49,29.92,29.88,20,3,20,0.03
2012-7-16,75.8,63.8,55.9,60.3,55.6,52.3,92,76,53,29.91,29.76,10,2,10,0.02
2012-7-17,74.2,66.9,60.9,62.1,59.0,55.9,87,76,61,29.91,29.76,10,2,10,0.00
2012-7-18,68.9,62.2,57.3,58.1,56.0,53.8,96,80,68,30.04,29.90,9,2,9,0.00
2012-7-19,77.9,65.2,57.3,64.6,57.2,54.2,91,77,53,30.04,29.88,12,1,12,0.00
2012-7-20,65.7,61.4,57.6,61.6,58.2,55.3,98,89,83,30.18,29.93,14,1,14,0.40
2012-7-21,76.5,65.2,58.0,56.5,54.9,51.8,91,72,45,30.18,30.03,11,2,11,0.00
2012-7-22,62.9,57.2,53.1,53.6,49.8,45.9,90,77,61,30.15,30.04,14,2,15,0.00
2012-7-23,63.2,57.3,49.1,53.2,48.2,44.3,87,72,59,30.22,30.13,10,2,10,0.00
2012-7-24,73.3,61.4,52.0,54.1,51.3,49.1,92,72,49,30.14,29.96,15,2,15,0.00
2012-7-25,80.9,66.9,52.3,60.2,54.6,48.2,87,67,45,30.00,29.86,11,2,11,0.00
2012-7-26,80.1,65.2,55.1,64.6,56.8,51.6,92,76,49,29.95,29.85,11,1,11,0.00
2012-7-27,68.8,60.8,55.1,59.0,54.5,52.3,92,80,59,30.09,29.92,12,1,12,0.01
2012-7-28,68.8,61.1,54.7,55.0,53.1,51.5,91,76,58,30.14,30.09,10,1,10,0.00
2012-7-29,70.8,63.0,56.9,55.2,53.7,51.8,88,73,54,30.15,30.06,11,1,11,0.00
2012-7-30,66.0,58.8,52.3,54.4,51.9,48.8,91,79,60,30.15,30.09,10,1,10,0.00
2012-7-31,68.9,60.5,54.8,54.0,50.7,47.6,85,71,54,30.16,30.11,11,1,11,0.00
2012-8-1,74.4,61.3,50.8,59.2,52.4,47.0,88,74,49,30.20,30.11,11,2,11,0.00
2012-8-2,71.3,59.8,51.7,54.7,51.7,48.2,91,76,51,30.17,30.07,13,1,13,0.00
2012-8-3,80.3,66.6,52.8,60.0,54.4,49.1,90,67,41,30.10,29.94,12,2,12,0.00
2012-8-4,90.7,75.2,59.8,65.4,57.6,49.8,81,58,25,29.95,29.79,12,3,12,0.00
2012-8-5,91.0,78.3,66.1,68.4,60.0,50.8,79,55,38,29.95,29.81,13,2,13,0.00
2012-8-6,84.9,71.8,61.8,62.9,60.3,56.9,85,69,45,30.05,29.95,12,2,12,0.00
2012-8-7,70.6,62.7,58.1,60.4,57.3,54.5,92,83,68,30.06,30.00,9,1,9,0.00
2012-8-8,70.4,63.1,56.2,55.0,52.8,50.9,90,70,52,30.19,30.05,11,2,11,0.00
2012-8-9,72.0,64.1,56.6,59.4,54.9,51.1,88,72,55,30.19,30.06,12,2,12,0.00
2012-8-10,76.5,63.6,51.9,56.0,51.2,47.3,88,67,38,30.11,30.01,14,3,14,0.00
2012-8-11,80.9,66.6,53.3,58.5,52.5,48.3,84,63,36,30.06,29.93,14,3,15,0.00
2012-8-12,85.3,72.3,59.0,61.5,57.4,53.8,84,62,39,29.96,29.87,13,3,13,0.00
2012-8-13,87.2,72.1,60.9,60.8,55.4,45.8,83,60,25,29.98,29.91,15,3,15,0.00
2012-8-14,83.8,69.1,55.6,60.3,53.9,49.3,81,61,36,29.96,29.83,14,2,14,0.00
2012-8-15,84.1,70.6,56.5,63.9,57.8,52.7,88,66,43,29.91,29.81,12,2,12,0.00
2012-8-16,92.7,77.0,60.1,59.5,54.0,45.1,78,49,21,29.90,29.83,13,2,13,0.00
2012-8-17,93.2,76.7,61.3,62.7,56.2,52.6,80,52,28,29.92,29.84,11,2,11,0.00
2012-8-18,68.9,63.0,57.6,60.8,57.7,55.1,92,83,74,29.94,29.84,13,1,13,0.00
2012-8-19,68.8,61.7,56.2,58.9,55.5,53.2,92,81,61,30.02,29.93,10,1,10,0.02
2012-8-20,77.4,65.6,55.4,57.4,53.9,50.4,87,68,45,30.03,29.90,9,1,9,0.00
2012-8-21,68.3,61.4,54.4,54.8,50.9,45.4,87,70,48,30.02,29.93,14,2,14,0.00
2012-8-22,70.8,61.2,52.8,54.2,50.0,47.1,85,68,44,30.08,30.01,14,1,14,0.00
2012-8-23,69.8,59.4,51.1,51.2,47.7,41.1,85,67,36,30.09,30.01,16,2,16,0.00
2012-8-24,70.8,57.8,45.7,46.6,43.9,40.3,83,63,38,30.18,29.98,14,3,14,0.00
2012-8-25,79.6,63.2,48.0,51.5,46.7,43.1,84,59,29,29.98,29.71,11,3,11,0.00
2012-8-26,72.7,62.3,51.7,53.1,50.1,46.7,84,65,48,29.94,29.73,12,2,12,0.00
2012-8-27,73.9,62.2,50.1,53.2,49.2,46.1,87,65,39,30.03,29.94,14,2,14,0.00
2012-8-28,72.1,61.4,53.9,51.6,48.2,43.7,80,64,37,30.06,29.97,12,2,15,0.00
2012-8-29,69.6,61.4,55.4,52.9,49.4,45.7,80,66,44,30.11,30.03,8,1,8,0.00
2012-8-30,71.8,60.7,49.9,52.4,48.9,44.8,84,66,47,30.04,29.85,12,2,12,0.00
2012-8-31,70.3,58.2,48.6,50.1,47.0,43.6,87,68,40,29.98,29.88,12,1,12,0.00
2012-9-1,69.8,58.2,46.1,52.7,46.8,41.5,85,67,44,30.13,29.98,11,2,11,0.00
2012-9-2,70.8,57.8,45.1,48.1,44.8,40.8,86,65,35,30.18,30.10,13,2,13,0.00
2012-9-3,70.3,58.7,47.3,53.9,48.2,42.1,83,69,52,30.15,30.08,13,3,13,0.00
2012-9-4,75.8,61.9,50.7,54.1,48.2,44.8,84,63,36,30.18,30.07,14,3,14,0.00
2012-9-5,80.5,65.2,53.3,53.2,49.7,44.7,81,61,29,30.08,29.89,15,3,15,0.00
2012-9-6,81.6,65.9,52.0,55.4,50.9,46.3,82,61,35,30.01,29.92,15,3,15,0.00
2012-9-7,87.0,71.1,56.0,52.5,46.9,38.7,76,46,19,30.09,29.98,13,3,13,0.00
2012-9-8,82.4,68.1,56.7,60.1,50.0,44.5,79,54,31,29.99,29.88,18,3,18,0.01
2012-9-9,64.7,59.1,53.6,51.4,49.3,45.7,90,71,55,30.00,29.94,14,3,14,0.00
2012-9-10,64.8,56.7,47.3,53.0,45.8,37.5,89,69,39,30.19,29.96,17,3,17,0.10
2012-9-11,65.2,53.0,41.5,43.6,40.7,37.4,87,66,41,30.29,30.19,15,2,15,0.00
2012-9-12,71.5,55.9,42.5,49.0,42.3,36.9,84,64,34,30.32,30.19,12,3,12,0.00
2012-9-13,82.8,62.9,44.8,53.5,44.6,36.7,79,55,24,30.20,30.02,13,2,13,0.00
2012-9-14,81.4,67.4,54.4,52.4,46.5,42.8,72,49,28,30.05,29.97,11,3,11,0.00
2012-9-15,75.6,62.3,50.4,51.4,48.4,45.1,83,63,36,30.14,30.02,9,2,9,0.00
2012-9-16,74.9,60.9,47.7,52.8,48.2,43.3,85,66,38,30.18,30.08,12,2,12,0.00
2012-9-17,81.4,66.6,55.0,55.7,49.2,45.8,75,56,30,30.10,29.97,14,4,14,0.00
2012-9-18,85.9,69.2,57.2,53.7,46.7,41.2,77,48,22,30.06,29.96,11,2,11,0.00
2012-9-19,76.8,60.8,48.3,55.1,50.1,45.5,92,71,40,30.12,30.02,12,2,12,0.00
2012-9-20,69.9,57.4,48.9,54.3,50.2,44.9,89,78,56,30.10,30.01,9,1,9,0.00
2012-9-21,59.0,55.7,53.6,52.7,51.5,50.3,92,86,76,30.12,30.09,9,1,9,0.02
2012-9-22,64.7,56.4,50.4,51.0,48.3,44.9,89,76,51,30.14,30.09,10,1,10,0.01
2012-9-23,68.6,56.1,46.4,49.3,45.9,41.3,86,70,46,30.14,30.08,11,3,11,0.00
2012-9-24,69.3,58.3,49.9,53.7,48.3,45.1,87,71,50,30.11,30.05,14,2,14,0.00
2012-9-25,61.3,55.6,49.8,52.5,49.6,44.2,90,81,66,30.11,30.07,8,1,8,0.00
2012-9-26,69.6,56.3,46.5,52.7,46.2,41.3,85,70,45,30.11,30.01,13,2,13,0.00
2012-9-27,74.4,60.0,48.2,52.6,48.4,44.0,86,68,41,30.05,29.91,12,2,12,0.00
2012-9-28,78.6,64.5,55.3,54.2,48.5,40.7,82,60,27,30.00,29.91,11,2,11,0.00
2012-9-29,66.1,57.0,47.1,54.8,49.5,42.8,92,77,50,30.27,29.99,12,2,12,0.01
2012-9-30,68.6,54.4,43.2,46.0,42.7,39.0,87,68,35,30.38,30.27,12,2,12,0.01
2012-10-1,75.6,59.8,47.0,54.4,45.6,40.8,80,62,38,30.33,30.08,11,3,11,0.00
2012-10-2,63.4,54.3,41.6,52.5,45.2,35.6,91,73,43,30.25,30.10,15,2,15,0.02
2012-10-3,65.5,49.8,38.2,38.4,34.4,28.9,81,59,28,30.34,30.23,12,3,12,0.00
2012-10-4,65.2,49.5,36.9,42.0,35.4,30.3,78,60,35,30.26,30.19,12,3,12,0.00
2012-10-5,70.3,52.5,37.2,36.0,30.8,24.4,74,48,19,30.25,30.16,12,2,12,0.00
2012-10-6,73.0,56.5,44.3,36.0,27.4,20.5,49,35,15,30.20,30.07,12,2,12,0.00
2012-10-7,76.3,59.3,45.5,40.5,30.6,23.3,52,36,16,30.08,29.90,16,3,16,0.00
2012-10-8,72.3,58.3,46.7,43.2,37.8,32.8,79,49,26,30.02,29.90,14,3,14,0.00
2012-10-9,62.1,49.1,39.5,46.1,41.9,35.6,88,77,52,30.11,30.01,9,1,9,0.00
2012-10-10,55.3,49.0,42.5,46.1,42.9,37.8,88,79,67,30.02,29.95,13,2,13,0.00
2012-10-11,65.6,51.5,41.9,47.1,42.8,37.8,88,74,48,29.97,29.78,9,2,9,0.00
2012-10-12,57.6,51.5,43.3,51.3,46.6,39.4,92,84,72,30.01,29.81,14,1,14,0.10
2012-10-13,61.5,57.5,53.9,54.2,51.5,48.0,87,80,70,30.15,30.00,13,3,13,0.24
2012-10-14,66.4,62.5,56.9,54.1,51.8,49.2,90,69,57,30.09,29.86,27,6,27,0.34
2012-10-15,65.5,59.7,53.9,57.5,54.0,50.5,95,82,63,29.94,29.57,34,4,34,0.31
2012-10-16,60.2,50.5,42.8,55.1,43.5,38.9,88,77,56,30.27,29.61,26,4,26,0.27
2012-10-17,58.7,47.3,39.2,43.6,38.7,34.8,88,74,46,30.32,30.18,16,3,16,0.01
2012-10-18,69.8,55.5,41.9,53.8,41.6,28.1,88,61,42,30.22,29.80,24,3,24,0.13
2012-10-19,60.5,55.7,48.2,54.2,49.6,43.1,91,80,65,29.83,29.74,18,3,18,0.11
2012-10-20,49.6,43.5,39.1,43.3,36.8,32.1,88,78,55,29.93,29.81,25,2,25,0.33
2012-10-21,51.3,43.4,37.9,40.3,35.2,32.1,88,73,52,29.87,29.73,24,3,24,0.06
2012-10-22,42.3,39.5,35.3,39.3,35.1,30.6,90,84,76,29.73,29.55,12,1,12,0.16
2012-10-23,49.9,43.5,39.8,39.0,36.1,33.6,88,76,54,29.85,29.66,19,2,19,0.02
2012-10-24,51.9,44.1,39.1,42.0,37.3,34.0,90,77,52,30.15,29.82,14,2,14,0.03
2012-10-25,53.5,45.6,41.6,42.7,38.8,35.1,89,78,53,30.40,30.14,11,1,11,0.01
2012-10-26,53.5,47.5,42.5,44.5,39.6,32.1,88,74,55,30.30,30.05,15,2,15,0.00
2012-10-27,56.9,51.8,47.4,53.1,45.8,41.0,89,80,63,30.07,29.77,15,3,15,0.52
2012-10-28,62.0,55.1,51.6,53.1,50.7,47.4,92,86,62,29.94,29.75,11,0,11,0.32
2012-10-29,63.9,59.0,51.9,55.0,51.2,47.0,93,76,59,30.00,29.74,22,3,22,0.04
2012-10-30,59.5,57.9,54.5,55.4,52.1,46.7,91,81,65,29.95,29.73,21,5,21,0.41
2012-10-31,59.6,56.4,51.6,53.0,49.6,44.4,89,78,65,29.74,29.61,24,5,24,0.10
2012-11-1,58.9,53.6,50.2,49.0,46.9,43.5,90,79,58,30.01,29.67,15,2,15,0.16
2012-11-2,60.1,53.7,49.8,51.8,47.8,44.1,91,81,67,30.02,29.94,12,2,12,0.04
2012-11-3,60.5,54.9,50.7,51.9,50.1,48.1,92,84,67,30.17,29.95,13,2,13,0.04
2012-11-4,67.8,61.4,53.2,55.0,52.3,50.0,91,73,59,30.25,30.14,24,4,24,0.01
2012-11-5,57.2,52.9,46.8,52.8,48.1,43.9,92,84,66,30.35,30.13,9,1,9,0.13
2012-11-6,61.5,50.2,41.5,51.6,45.7,38.5,92,85,65,30.13,29.94,10,1,10,0.10
2012-11-7,52.5,44.6,36.8,44.8,37.9,32.1,92,78,54,30.13,29.92,11,2,11,0.01
2012-11-8,47.0,39.2,34.3,36.1,32.4,29.5,87,77,62,29.92,29.77,13,3,13,0.00
2012-11-9,45.7,37.3,31.3,32.9,29.2,25.9,86,74,47,29.94,29.83,12,2,12,0.00
2012-11-10,42.3,34.3,29.5,31.4,27.5,24.7,83,76,59,30.20,29.93,11,2,11,0.00
2012-11-11,48.2,43.0,34.7,38.5,32.2,24.7,83,66,51,30.22,30.02,36,9,36,0.61
2012-11-12,53.9,49.2,45.5,46.7,42.4,37.8,87,77,65,30.21,30.03,33,4,33,0.08
2012-11-13,54.7,48.2,44.5,46.6,42.4,38.7,90,81,61,30.21,30.12,13,2,13,0.22
2012-11-14,50.2,45.7,38.9,47.3,42.6,35.6,98,89,83,30.28,30.16,7,1,7,0.00
2012-11-15,39.6,36.5,30.9,36.9,33.6,28.0,92,89,83,30.24,29.93,10,1,10,0.01
2012-11-16,56.9,45.6,31.2,43.2,37.0,29.1,94,74,42,29.93,29.68,19,3,19,0.00
2012-11-17,59.0,56.8,53.6,40.0,36.9,34.3,59,48,40,29.68,29.52,34,11,34,0.00
2012-12-2,47.6,44.5,41.3,40.9,38.9,35.0,91,81,65,29.81,29.16,20,4,26,0.75
2012-12-3,51.4,48.5,42.6,43.7,39.8,36.4,90,72,59,30.00,29.60,20,7,26,0.15
2012-12-4,53.5,48.5,42.5,47.1,41.8,36.9,91,78,58,29.89,29.48,40,8,40,0.53
2012-12-5,43.5,40.4,38.5,37.3,34.2,32.6,84,78,70,30.12,29.89,15,3,15,0.02
2012-12-20,39.2,35.3,31.9,33.8,30.4,28.2,88,82,71,29.79,29.76,7,2,11,0.00
2012-12-21,48.9,39.2,30.1,39.4,32.8,26.4,88,78,57,29.78,29.63,16,2,21,0.04
2012-12-22,46.1,41.5,34.6,39.6,34.9,30.3,91,78,58,29.72,29.46,24,4,24,0.07
2012-12-23,43.6,39.4,32.8,38.3,33.4,29.5,91,80,58,29.82,29.59,29,4,29,0.25
2012-12-24,40.5,36.9,33.8,37.0,33.1,29.6,95,86,79,30.16,29.82,9,2,9,0.06
2012-12-25,43.6,40.8,36.2,34.6,31.2,23.3,80,69,48,30.01,29.61,34,9,34,0.10
2012-12-26,45.8,41.0,37.6,39.6,35.8,32.0,89,82,71,29.93,29.66,10,2,10,0.06
2012-12-27,42.8,39.0,36.0,39.9,35.3,31.0,95,87,79,30.15,29.93,11,2,11,0.15
2012-12-28,46.5,40.3,36.8,39.9,34.6,31.0,89,80,68,30.14,30.07,9,2,9,0.00
2012-12-29,43.9,37.5,35.6,37.3,32.2,29.7,92,82,58,30.21,30.12,10,1,10,0.09
2012-12-30,41.7,35.3,30.7,37.8,32.1,26.9,95,88,77,30.29,30.20,11,1,11,0.00
2012-12-31,35.5,33.8,30.3,33.7,29.8,25.8,94,85,77,30.31,30.21,11,2,11,0.00
2013-1-1,35.5,35.5,35.5,31.1,31.1,31.1,84,84,84,30.31,30.31,2,2,2,0.00